sensor_id;sensor_type;location;lat;lon;timestamp;P1;durP1;ratioP1;P2;durP2;ratioP2
10517;SDS011;5307;42.548;22.968;2023-11-21T00:00:55;16.15;;;7.75;;
10517;SDS011;5307;42.548;22.968;2023-11-21T00:03:25;14.52;;;6.60;;
10517;SDS011;5307;42.548;22.968;2023-11-21T00:05:53;11.77;;;5.90;;
10517;SDS011;5307;42.548;22.968;2023-11-21T00:08:20;10.55;;;5.93;;
10517;SDS011;5307;42.548;22.968;2023-11-21T00:10:46;11.40;;;5.25;;
10517;SDS011;5307;42.548;22.968;2023-11-21T00:13:13;10.27;;;6.50;;
10517;SDS011;5307;42.548;22.968;2023-11-21T00:15:40;12.30;;;7.38;;
10517;SDS011;5307;42.548;22.968;2023-11-21T00:18:07;13.27;;;6.97;;
10517;SDS011;5307;42.548;22.968;2023-11-21T00:20:35;16.25;;;7.95;;
10517;SDS011;5307;42.548;22.968;2023-11-21T00:23:02;20.13;;;8.75;;
10517;SDS011;5307;42.548;22.968;2023-11-21T00:25:29;17.50;;;8.45;;
10517;SDS011;5307;42.548;22.968;2023-11-21T00:27:56;12.32;;;7.13;;
10517;SDS011;5307;42.548;22.968;2023-11-21T00:30:23;14.02;;;6.40;;
10517;SDS011;5307;42.548;22.968;2023-11-21T00:32:49;12.63;;;6.97;;
10517;SDS011;5307;42.548;22.968;2023-11-21T00:35:16;13.45;;;7.55;;
10517;SDS011;5307;42.548;22.968;2023-11-21T00:37:44;13.00;;;7.00;;
10517;SDS011;5307;42.548;22.968;2023-11-21T00:40:11;24.80;;;10.50;;
10517;SDS011;5307;42.548;22.968;2023-11-21T00:42:40;26.25;;;10.73;;
10517;SDS011;5307;42.548;22.968;2023-11-21T00:45:07;20.02;;;8.85;;
10517;SDS011;5307;42.548;22.968;2023-11-21T00:47:35;19.70;;;7.45;;
10517;SDS011;5307;42.548;22.968;2023-11-21T00:50:02;13.13;;;6.90;;
10517;SDS011;5307;42.548;22.968;2023-11-21T00:52:31;15.95;;;6.63;;
10517;SDS011;5307;42.548;22.968;2023-11-21T00:54:59;16.67;;;6.47;;
10517;SDS011;5307;42.548;22.968;2023-11-21T00:57:26;14.57;;;6.38;;
10517;SDS011;5307;42.548;22.968;2023-11-21T00:59:53;14.82;;;6.15;;
10517;SDS011;5307;42.548;22.968;2023-11-21T01:02:20;17.38;;;5.95;;
10517;SDS011;5307;42.548;22.968;2023-11-21T01:04:47;12.90;;;5.25;;
10517;SDS011;5307;42.548;22.968;2023-11-21T01:07:13;10.43;;;5.20;;
10517;SDS011;5307;42.548;22.968;2023-11-21T01:09:40;16.40;;;7.88;;
10517;SDS011;5307;42.548;22.968;2023-11-21T01:12:10;16.77;;;8.82;;
10517;SDS011;5307;42.548;22.968;2023-11-21T01:14:37;19.52;;;10.02;;
10517;SDS011;5307;42.548;22.968;2023-11-21T01:17:04;21.60;;;10.60;;
10517;SDS011;5307;42.548;22.968;2023-11-21T01:19:31;16.27;;;7.95;;
10517;SDS011;5307;42.548;22.968;2023-11-21T01:21:58;15.85;;;6.90;;
10517;SDS011;5307;42.548;22.968;2023-11-21T01:24:24;12.32;;;7.30;;
10517;SDS011;5307;42.548;22.968;2023-11-21T01:26:51;14.52;;;6.65;;
10517;SDS011;5307;42.548;22.968;2023-11-21T01:29:19;13.55;;;6.38;;
10517;SDS011;5307;42.548;22.968;2023-11-21T01:31:46;13.02;;;6.50;;
10517;SDS011;5307;42.548;22.968;2023-11-21T01:34:13;22.48;;;8.98;;
10517;SDS011;5307;42.548;22.968;2023-11-21T01:36:39;36.30;;;13.48;;
10517;SDS011;5307;42.548;22.968;2023-11-21T01:39:06;42.67;;;17.23;;
10517;SDS011;5307;42.548;22.968;2023-11-21T01:41:33;39.25;;;15.48;;
10517;SDS011;5307;42.548;22.968;2023-11-21T01:44:01;22.33;;;10.48;;
10517;SDS011;5307;42.548;22.968;2023-11-21T01:46:29;28.25;;;11.27;;
10517;SDS011;5307;42.548;22.968;2023-11-21T01:48:56;22.00;;;10.05;;
10517;SDS011;5307;42.548;22.968;2023-11-21T01:51:23;19.60;;;8.57;;
10517;SDS011;5307;42.548;22.968;2023-11-21T01:53:51;17.38;;;7.43;;
10517;SDS011;5307;42.548;22.968;2023-11-21T01:56:18;16.85;;;7.53;;
10517;SDS011;5307;42.548;22.968;2023-11-21T01:58:45;19.30;;;9.70;;
10517;SDS011;5307;42.548;22.968;2023-11-21T02:01:13;18.17;;;7.38;;
10517;SDS011;5307;42.548;22.968;2023-11-21T02:03:41;15.45;;;6.47;;
10517;SDS011;5307;42.548;22.968;2023-11-21T02:06:07;17.30;;;7.90;;
10517;SDS011;5307;42.548;22.968;2023-11-21T02:08:35;11.43;;;6.15;;
10517;SDS011;5307;42.548;22.968;2023-11-21T02:11:02;14.95;;;6.28;;
10517;SDS011;5307;42.548;22.968;2023-11-21T02:13:30;12.52;;;5.78;;
10517;SDS011;5307;42.548;22.968;2023-11-21T02:15:57;13.93;;;5.45;;
10517;SDS011;5307;42.548;22.968;2023-11-21T02:18:23;13.13;;;6.90;;
10517;SDS011;5307;42.548;22.968;2023-11-21T02:20:52;19.77;;;7.38;;
10517;SDS011;5307;42.548;22.968;2023-11-21T02:23:20;15.15;;;6.60;;
10517;SDS011;5307;42.548;22.968;2023-11-21T02:25:48;22.15;;;8.95;;
10517;SDS011;5307;42.548;22.968;2023-11-21T02:28:15;33.90;;;13.50;;
10517;SDS011;5307;42.548;22.968;2023-11-21T02:30:50;50.50;;;17.58;;
10517;SDS011;5307;42.548;22.968;2023-11-21T02:33:20;38.85;;;15.65;;
10517;SDS011;5307;42.548;22.968;2023-11-21T02:35:47;41.20;;;14.70;;
10517;SDS011;5307;42.548;22.968;2023-11-21T02:38:14;36.30;;;13.07;;
10517;SDS011;5307;42.548;22.968;2023-11-21T02:40:43;30.88;;;11.30;;
10517;SDS011;5307;42.548;22.968;2023-11-21T02:43:10;29.13;;;11.63;;
10517;SDS011;5307;42.548;22.968;2023-11-21T02:45:36;22.83;;;9.65;;
10517;SDS011;5307;42.548;22.968;2023-11-21T02:48:03;30.35;;;10.55;;
10517;SDS011;5307;42.548;22.968;2023-11-21T02:50:31;23.70;;;11.13;;
10517;SDS011;5307;42.548;22.968;2023-11-21T02:52:58;26.60;;;11.30;;
10517;SDS011;5307;42.548;22.968;2023-11-21T02:55:25;25.52;;;9.45;;
10517;SDS011;5307;42.548;22.968;2023-11-21T02:57:53;17.88;;;9.65;;
10517;SDS011;5307;42.548;22.968;2023-11-21T03:00:21;18.40;;;9.68;;
10517;SDS011;5307;42.548;22.968;2023-11-21T03:02:49;20.75;;;9.32;;
10517;SDS011;5307;42.548;22.968;2023-11-21T03:05:16;20.58;;;9.80;;
10517;SDS011;5307;42.548;22.968;2023-11-21T03:07:43;23.15;;;10.75;;
10517;SDS011;5307;42.548;22.968;2023-11-21T03:10:09;28.58;;;11.65;;
10517;SDS011;5307;42.548;22.968;2023-11-21T03:12:37;28.20;;;10.82;;
10517;SDS011;5307;42.548;22.968;2023-11-21T03:15:06;25.95;;;12.57;;
10517;SDS011;5307;42.548;22.968;2023-11-21T03:17:33;29.00;;;13.80;;
10517;SDS011;5307;42.548;22.968;2023-11-21T03:20:00;26.10;;;14.43;;
10517;SDS011;5307;42.548;22.968;2023-11-21T03:22:29;31.98;;;17.88;;
10517;SDS011;5307;42.548;22.968;2023-11-21T03:24:55;36.45;;;17.42;;
10517;SDS011;5307;42.548;22.968;2023-11-21T03:27:23;28.40;;;15.93;;
10517;SDS011;5307;42.548;22.968;2023-11-21T03:29:50;30.88;;;14.90;;
10517;SDS011;5307;42.548;22.968;2023-11-21T03:32:18;29.67;;;11.90;;
10517;SDS011;5307;42.548;22.968;2023-11-21T03:34:54;25.67;;;12.05;;
10517;SDS011;5307;42.548;22.968;2023-11-21T03:37:23;32.03;;;13.30;;
10517;SDS011;5307;42.548;22.968;2023-11-21T03:39:50;33.30;;;15.27;;
10517;SDS011;5307;42.548;22.968;2023-11-21T03:42:17;29.77;;;15.23;;
10517;SDS011;5307;42.548;22.968;2023-11-21T03:44:43;31.33;;;14.63;;
10517;SDS011;5307;42.548;22.968;2023-11-21T03:47:10;24.95;;;13.23;;
10517;SDS011;5307;42.548;22.968;2023-11-21T03:49:38;29.42;;;12.55;;
10517;SDS011;5307;42.548;22.968;2023-11-21T03:52:05;21.02;;;12.20;;
10517;SDS011;5307;42.548;22.968;2023-11-21T03:54:34;26.50;;;13.95;;
10517;SDS011;5307;42.548;22.968;2023-11-21T03:57:01;25.85;;;13.68;;
10517;SDS011;5307;42.548;22.968;2023-11-21T03:59:28;23.95;;;12.75;;
10517;SDS011;5307;42.548;22.968;2023-11-21T04:01:55;27.48;;;13.32;;
10517;SDS011;5307;42.548;22.968;2023-11-21T04:04:22;26.95;;;15.00;;
10517;SDS011;5307;42.548;22.968;2023-11-21T04:06:50;32.22;;;16.35;;
10517;SDS011;5307;42.548;22.968;2023-11-21T04:09:18;31.13;;;15.00;;
10517;SDS011;5307;42.548;22.968;2023-11-21T04:11:45;35.30;;;17.23;;
10517;SDS011;5307;42.548;22.968;2023-11-21T04:14:12;27.33;;;14.20;;
10517;SDS011;5307;42.548;22.968;2023-11-21T04:16:40;28.05;;;15.98;;
10517;SDS011;5307;42.548;22.968;2023-11-21T04:19:07;26.80;;;14.70;;
10517;SDS011;5307;42.548;22.968;2023-11-21T04:21:34;28.20;;;14.82;;
10517;SDS011;5307;42.548;22.968;2023-11-21T04:24:02;28.23;;;15.40;;
10517;SDS011;5307;42.548;22.968;2023-11-21T04:26:29;25.10;;;14.15;;
10517;SDS011;5307;42.548;22.968;2023-11-21T04:28:58;32.17;;;16.48;;
10517;SDS011;5307;42.548;22.968;2023-11-21T04:31:33;31.98;;;16.70;;
10517;SDS011;5307;42.548;22.968;2023-11-21T04:33:59;33.05;;;18.00;;
10517;SDS011;5307;42.548;22.968;2023-11-21T04:36:26;31.77;;;18.50;;
10517;SDS011;5307;42.548;22.968;2023-11-21T04:38:53;32.20;;;16.85;;
10517;SDS011;5307;42.548;22.968;2023-11-21T04:41:21;33.35;;;16.45;;
10517;SDS011;5307;42.548;22.968;2023-11-21T04:43:48;30.95;;;15.07;;
10517;SDS011;5307;42.548;22.968;2023-11-21T04:46:15;24.50;;;14.48;;
10517;SDS011;5307;42.548;22.968;2023-11-21T04:48:42;24.35;;;14.32;;
10517;SDS011;5307;42.548;22.968;2023-11-21T04:51:09;32.08;;;13.70;;
10517;SDS011;5307;42.548;22.968;2023-11-21T04:53:36;27.65;;;13.70;;
10517;SDS011;5307;42.548;22.968;2023-11-21T04:56:04;24.65;;;14.27;;
10517;SDS011;5307;42.548;22.968;2023-11-21T04:58:33;29.58;;;15.40;;
10517;SDS011;5307;42.548;22.968;2023-11-21T05:01:00;28.67;;;15.50;;
10517;SDS011;5307;42.548;22.968;2023-11-21T05:03:28;31.83;;;15.98;;
10517;SDS011;5307;42.548;22.968;2023-11-21T05:05:55;33.53;;;15.88;;
10517;SDS011;5307;42.548;22.968;2023-11-21T05:08:22;30.77;;;14.98;;
10517;SDS011;5307;42.548;22.968;2023-11-21T05:10:48;26.98;;;14.77;;
10517;SDS011;5307;42.548;22.968;2023-11-21T05:13:16;31.65;;;15.00;;
10517;SDS011;5307;42.548;22.968;2023-11-21T05:15:45;28.63;;;15.30;;
10517;SDS011;5307;42.548;22.968;2023-11-21T05:18:12;31.33;;;15.98;;
10517;SDS011;5307;42.548;22.968;2023-11-21T05:20:39;29.00;;;15.40;;
10517;SDS011;5307;42.548;22.968;2023-11-21T05:23:06;36.03;;;18.20;;
10517;SDS011;5307;42.548;22.968;2023-11-21T05:25:33;37.75;;;18.80;;
10517;SDS011;5307;42.548;22.968;2023-11-21T05:28:00;52.33;;;25.10;;
10517;SDS011;5307;42.548;22.968;2023-11-21T05:30:28;43.45;;;22.25;;
10517;SDS011;5307;42.548;22.968;2023-11-21T05:32:56;42.92;;;22.48;;
10517;SDS011;5307;42.548;22.968;2023-11-21T05:35:22;37.85;;;19.98;;
10517;SDS011;5307;42.548;22.968;2023-11-21T05:37:49;29.85;;;16.13;;
10517;SDS011;5307;42.548;22.968;2023-11-21T05:40:16;36.65;;;17.08;;
10517;SDS011;5307;42.548;22.968;2023-11-21T05:42:43;34.88;;;17.58;;
10517;SDS011;5307;42.548;22.968;2023-11-21T05:45:10;33.22;;;17.48;;
10517;SDS011;5307;42.548;22.968;2023-11-21T05:47:38;37.83;;;19.50;;
10517;SDS011;5307;42.548;22.968;2023-11-21T05:50:08;32.85;;;18.85;;
10517;SDS011;5307;42.548;22.968;2023-11-21T05:52:37;34.70;;;18.05;;
10517;SDS011;5307;42.548;22.968;2023-11-21T05:55:04;35.08;;;19.00;;
10517;SDS011;5307;42.548;22.968;2023-11-21T05:57:32;39.80;;;18.08;;
10517;SDS011;5307;42.548;22.968;2023-11-21T06:00:01;42.55;;;20.88;;
10517;SDS011;5307;42.548;22.968;2023-11-21T06:02:36;36.30;;;20.15;;
10517;SDS011;5307;42.548;22.968;2023-11-21T06:05:03;47.00;;;22.17;;
10517;SDS011;5307;42.548;22.968;2023-11-21T06:07:32;44.78;;;24.88;;
10517;SDS011;5307;42.548;22.968;2023-11-21T06:09:59;39.63;;;23.02;;
10517;SDS011;5307;42.548;22.968;2023-11-21T06:12:27;49.45;;;23.58;;
10517;SDS011;5307;42.548;22.968;2023-11-21T06:14:54;57.33;;;27.80;;
10517;SDS011;5307;42.548;22.968;2023-11-21T06:17:21;64.22;;;31.95;;
10517;SDS011;5307;42.548;22.968;2023-11-21T06:19:50;69.50;;;34.08;;
10517;SDS011;5307;42.548;22.968;2023-11-21T06:22:17;72.45;;;33.20;;
10517;SDS011;5307;42.548;22.968;2023-11-21T06:24:46;73.90;;;35.45;;
10517;SDS011;5307;42.548;22.968;2023-11-21T06:27:12;88.00;;;44.80;;
10517;SDS011;5307;42.548;22.968;2023-11-21T06:29:39;92.85;;;45.10;;
10517;SDS011;5307;42.548;22.968;2023-11-21T06:32:07;82.13;;;43.65;;
10517;SDS011;5307;42.548;22.968;2023-11-21T06:34:34;83.85;;;39.03;;
10517;SDS011;5307;42.548;22.968;2023-11-21T06:37:01;97.10;;;48.05;;
10517;SDS011;5307;42.548;22.968;2023-11-21T06:39:27;83.25;;;45.80;;
10517;SDS011;5307;42.548;22.968;2023-11-21T06:41:56;73.60;;;38.60;;
10517;SDS011;5307;42.548;22.968;2023-11-21T06:44:24;83.63;;;38.97;;
10517;SDS011;5307;42.548;22.968;2023-11-21T06:46:51;73.93;;;37.47;;
10517;SDS011;5307;42.548;22.968;2023-11-21T06:49:18;76.75;;;34.20;;
10517;SDS011;5307;42.548;22.968;2023-11-21T06:51:45;49.50;;;24.48;;
10517;SDS011;5307;42.548;22.968;2023-11-21T06:54:12;38.78;;;20.27;;
10517;SDS011;5307;42.548;22.968;2023-11-21T06:56:39;50.05;;;24.75;;
10517;SDS011;5307;42.548;22.968;2023-11-21T06:59:07;45.58;;;26.92;;
10517;SDS011;5307;42.548;22.968;2023-11-21T07:01:35;36.88;;;22.77;;
10517;SDS011;5307;42.548;22.968;2023-11-21T07:04:04;48.55;;;26.17;;
10517;SDS011;5307;42.548;22.968;2023-11-21T07:06:31;62.70;;;30.30;;
10517;SDS011;5307;42.548;22.968;2023-11-21T07:08:58;60.63;;;33.30;;
10517;SDS011;5307;42.548;22.968;2023-11-21T07:11:26;62.55;;;35.28;;
10517;SDS011;5307;42.548;22.968;2023-11-21T07:13:53;66.88;;;34.50;;
10517;SDS011;5307;42.548;22.968;2023-11-21T07:16:21;69.03;;;32.72;;
10517;SDS011;5307;42.548;22.968;2023-11-21T07:18:49;50.47;;;29.42;;
10517;SDS011;5307;42.548;22.968;2023-11-21T07:21:15;42.40;;;24.33;;
10517;SDS011;5307;42.548;22.968;2023-11-21T07:23:43;35.10;;;22.85;;
10517;SDS011;5307;42.548;22.968;2023-11-21T07:26:10;45.80;;;27.05;;
10517;SDS011;5307;42.548;22.968;2023-11-21T07:28:36;46.38;;;25.83;;
10517;SDS011;5307;42.548;22.968;2023-11-21T07:31:03;47.50;;;26.15;;
10517;SDS011;5307;42.548;22.968;2023-11-21T07:33:32;45.05;;;25.17;;
10517;SDS011;5307;42.548;22.968;2023-11-21T07:35:59;45.50;;;24.67;;
10517;SDS011;5307;42.548;22.968;2023-11-21T07:38:26;54.83;;;26.65;;
10517;SDS011;5307;42.548;22.968;2023-11-21T07:40:53;51.42;;;28.20;;
10517;SDS011;5307;42.548;22.968;2023-11-21T07:43:20;52.35;;;26.08;;
10517;SDS011;5307;42.548;22.968;2023-11-21T07:45:47;49.00;;;24.45;;
10517;SDS011;5307;42.548;22.968;2023-11-21T07:48:14;47.22;;;23.73;;
10517;SDS011;5307;42.548;22.968;2023-11-21T07:50:42;46.28;;;26.15;;
10517;SDS011;5307;42.548;22.968;2023-11-21T07:53:09;50.05;;;26.27;;
10517;SDS011;5307;42.548;22.968;2023-11-21T07:55:36;36.42;;;20.95;;
10517;SDS011;5307;42.548;22.968;2023-11-21T07:58:03;24.38;;;15.13;;
10517;SDS011;5307;42.548;22.968;2023-11-21T08:00:29;22.15;;;13.13;;
10517;SDS011;5307;42.548;22.968;2023-11-21T08:02:56;17.77;;;9.70;;
10517;SDS011;5307;42.548;22.968;2023-11-21T08:05:23;19.20;;;11.80;;
10517;SDS011;5307;42.548;22.968;2023-11-21T08:07:52;14.85;;;9.43;;
10517;SDS011;5307;42.548;22.968;2023-11-21T08:10:18;18.20;;;9.85;;
10517;SDS011;5307;42.548;22.968;2023-11-21T08:12:46;16.58;;;9.80;;
10517;SDS011;5307;42.548;22.968;2023-11-21T08:15:16;17.00;;;9.43;;
10517;SDS011;5307;42.548;22.968;2023-11-21T08:17:43;14.90;;;8.23;;
10517;SDS011;5307;42.548;22.968;2023-11-21T08:20:10;12.27;;;7.38;;
10517;SDS011;5307;42.548;22.968;2023-11-21T08:22:37;13.55;;;6.93;;
10517;SDS011;5307;42.548;22.968;2023-11-21T08:25:07;14.20;;;7.53;;
10517;SDS011;5307;42.548;22.968;2023-11-21T08:27:38;13.20;;;7.25;;
10517;SDS011;5307;42.548;22.968;2023-11-21T08:30:05;13.93;;;7.25;;
10517;SDS011;5307;42.548;22.968;2023-11-21T08:32:33;11.02;;;6.57;;
10517;SDS011;5307;42.548;22.968;2023-11-21T08:35:00;14.30;;;7.15;;
10517;SDS011;5307;42.548;22.968;2023-11-21T08:37:27;12.43;;;6.00;;
10517;SDS011;5307;42.548;22.968;2023-11-21T08:39:57;10.00;;;6.40;;
10517;SDS011;5307;42.548;22.968;2023-11-21T08:42:26;9.07;;;6.18;;
10517;SDS011;5307;42.548;22.968;2023-11-21T08:44:55;9.52;;;5.53;;
10517;SDS011;5307;42.548;22.968;2023-11-21T08:47:22;11.98;;;8.02;;
10517;SDS011;5307;42.548;22.968;2023-11-21T08:49:51;14.57;;;8.32;;
10517;SDS011;5307;42.548;22.968;2023-11-21T08:52:18;11.80;;;7.70;;
10517;SDS011;5307;42.548;22.968;2023-11-21T08:54:47;12.25;;;6.40;;
10517;SDS011;5307;42.548;22.968;2023-11-21T08:57:21;12.30;;;5.93;;
10517;SDS011;5307;42.548;22.968;2023-11-21T08:59:49;18.73;;;8.20;;
10517;SDS011;5307;42.548;22.968;2023-11-21T09:02:20;13.73;;;7.55;;
10517;SDS011;5307;42.548;22.968;2023-11-21T09:04:48;13.70;;;7.45;;
10517;SDS011;5307;42.548;22.968;2023-11-21T09:07:16;16.55;;;8.57;;
10517;SDS011;5307;42.548;22.968;2023-11-21T09:09:44;19.42;;;7.75;;
10517;SDS011;5307;42.548;22.968;2023-11-21T09:12:10;14.20;;;6.82;;
10517;SDS011;5307;42.548;22.968;2023-11-21T09:14:37;12.70;;;7.07;;
10517;SDS011;5307;42.548;22.968;2023-11-21T09:17:05;15.88;;;7.93;;
10517;SDS011;5307;42.548;22.968;2023-11-21T09:19:36;16.63;;;7.75;;
10517;SDS011;5307;42.548;22.968;2023-11-21T09:22:03;29.30;;;11.18;;
10517;SDS011;5307;42.548;22.968;2023-11-21T09:24:30;20.45;;;10.50;;
10517;SDS011;5307;42.548;22.968;2023-11-21T09:26:56;21.17;;;11.45;;
10517;SDS011;5307;42.548;22.968;2023-11-21T09:29:25;20.42;;;10.07;;
10517;SDS011;5307;42.548;22.968;2023-11-21T09:31:52;22.45;;;10.27;;
10517;SDS011;5307;42.548;22.968;2023-11-21T09:34:21;18.38;;;8.75;;
10517;SDS011;5307;42.548;22.968;2023-11-21T09:36:48;17.83;;;9.68;;
10517;SDS011;5307;42.548;22.968;2023-11-21T09:39:15;19.02;;;8.23;;
10517;SDS011;5307;42.548;22.968;2023-11-21T09:41:43;15.05;;;7.35;;
10517;SDS011;5307;42.548;22.968;2023-11-21T09:44:17;14.32;;;6.45;;
10517;SDS011;5307;42.548;22.968;2023-11-21T09:46:44;11.30;;;7.53;;
10517;SDS011;5307;42.548;22.968;2023-11-21T09:49:14;24.42;;;7.20;;
10517;SDS011;5307;42.548;22.968;2023-11-21T09:51:43;14.30;;;7.70;;
10517;SDS011;5307;42.548;22.968;2023-11-21T09:54:10;18.02;;;8.38;;
10517;SDS011;5307;42.548;22.968;2023-11-21T09:56:37;17.73;;;9.02;;
10517;SDS011;5307;42.548;22.968;2023-11-21T09:59:04;18.95;;;9.65;;
10517;SDS011;5307;42.548;22.968;2023-11-21T10:01:33;13.75;;;7.38;;
10517;SDS011;5307;42.548;22.968;2023-11-21T10:04:02;20.70;;;8.65;;
10517;SDS011;5307;42.548;22.968;2023-11-21T10:06:30;15.88;;;7.07;;
10517;SDS011;5307;42.548;22.968;2023-11-21T10:09:00;22.83;;;7.25;;
10517;SDS011;5307;42.548;22.968;2023-11-21T10:11:28;15.85;;;7.72;;
10517;SDS011;5307;42.548;22.968;2023-11-21T10:13:56;19.02;;;6.80;;
10517;SDS011;5307;42.548;22.968;2023-11-21T10:16:28;18.42;;;7.10;;
10517;SDS011;5307;42.548;22.968;2023-11-21T10:18:55;24.45;;;7.07;;
10517;SDS011;5307;42.548;22.968;2023-11-21T10:21:24;23.55;;;8.15;;
10517;SDS011;5307;42.548;22.968;2023-11-21T10:23:51;23.17;;;7.25;;
10517;SDS011;5307;42.548;22.968;2023-11-21T10:26:22;21.55;;;8.05;;
10517;SDS011;5307;42.548;22.968;2023-11-21T10:28:55;16.80;;;5.20;;
10517;SDS011;5307;42.548;22.968;2023-11-21T10:31:23;19.15;;;7.07;;
10517;SDS011;5307;42.548;22.968;2023-11-21T10:33:50;21.67;;;8.82;;
10517;SDS011;5307;42.548;22.968;2023-11-21T10:36:24;19.00;;;5.90;;
10517;SDS011;5307;42.548;22.968;2023-11-21T10:38:51;14.40;;;6.18;;
10517;SDS011;5307;42.548;22.968;2023-11-21T10:41:19;22.63;;;6.57;;
10517;SDS011;5307;42.548;22.968;2023-11-21T10:43:47;19.55;;;5.65;;
10517;SDS011;5307;42.548;22.968;2023-11-21T10:46:14;20.52;;;7.55;;
10517;SDS011;5307;42.548;22.968;2023-11-21T10:48:42;15.98;;;6.35;;
10517;SDS011;5307;42.548;22.968;2023-11-21T10:51:08;16.33;;;6.55;;
10517;SDS011;5307;42.548;22.968;2023-11-21T10:53:38;23.67;;;7.15;;
10517;SDS011;5307;42.548;22.968;2023-11-21T10:56:06;25.33;;;6.80;;
10517;SDS011;5307;42.548;22.968;2023-11-21T10:58:36;19.00;;;4.75;;
10517;SDS011;5307;42.548;22.968;2023-11-21T11:01:06;20.83;;;6.57;;
10517;SDS011;5307;42.548;22.968;2023-11-21T11:03:36;14.35;;;5.63;;
10517;SDS011;5307;42.548;22.968;2023-11-21T11:06:05;24.88;;;6.55;;
10517;SDS011;5307;42.548;22.968;2023-11-21T11:08:36;18.58;;;6.25;;
10517;SDS011;5307;42.548;22.968;2023-11-21T11:11:04;22.00;;;5.85;;
10517;SDS011;5307;42.548;22.968;2023-11-21T11:13:31;16.55;;;6.85;;
10517;SDS011;5307;42.548;22.968;2023-11-21T11:15:59;16.17;;;7.15;;
10517;SDS011;5307;42.548;22.968;2023-11-21T11:18:28;19.13;;;8.43;;
10517;SDS011;5307;42.548;22.968;2023-11-21T11:20:56;15.07;;;7.72;;
10517;SDS011;5307;42.548;22.968;2023-11-21T11:23:32;29.50;;;12.20;;
10517;SDS011;5307;42.548;22.968;2023-11-21T11:26:12;35.10;;;21.52;;
10517;SDS011;5307;42.548;22.968;2023-11-21T11:28:55;24.50;;;13.85;;
10517;SDS011;5307;42.548;22.968;2023-11-21T11:31:33;22.92;;;12.40;;
10517;SDS011;5307;42.548;22.968;2023-11-21T11:34:12;33.17;;;16.40;;
10517;SDS011;5307;42.548;22.968;2023-11-21T11:36:51;17.10;;;8.68;;
10517;SDS011;5307;42.548;22.968;2023-11-21T11:39:28;28.77;;;8.48;;
10517;SDS011;5307;42.548;22.968;2023-11-21T11:41:56;34.53;;;15.93;;
10517;SDS011;5307;42.548;22.968;2023-11-21T11:47:16;28.75;;;12.82;;
10517;SDS011;5307;42.548;22.968;2023-11-21T11:49:56;39.38;;;14.60;;
10517;SDS011;5307;42.548;22.968;2023-11-21T11:52:33;19.10;;;9.15;;
10517;SDS011;5307;42.548;22.968;2023-11-21T11:55:01;20.17;;;11.35;;
10517;SDS011;5307;42.548;22.968;2023-11-21T11:57:29;28.98;;;13.43;;
10517;SDS011;5307;42.548;22.968;2023-11-21T12:00:10;19.40;;;10.68;;
10517;SDS011;5307;42.548;22.968;2023-11-21T12:02:50;18.20;;;9.77;;
10517;SDS011;5307;42.548;22.968;2023-11-21T12:05:20;34.50;;;15.80;;
10517;SDS011;5307;42.548;22.968;2023-11-21T12:07:49;38.63;;;15.13;;
10517;SDS011;5307;42.548;22.968;2023-11-21T12:10:19;28.38;;;12.48;;
10517;SDS011;5307;42.548;22.968;2023-11-21T12:12:48;22.85;;;10.88;;
10517;SDS011;5307;42.548;22.968;2023-11-21T12:15:16;21.27;;;10.95;;
10517;SDS011;5307;42.548;22.968;2023-11-21T12:17:44;19.27;;;10.00;;
10517;SDS011;5307;42.548;22.968;2023-11-21T12:20:11;14.07;;;7.82;;
10517;SDS011;5307;42.548;22.968;2023-11-21T12:22:44;17.23;;;5.93;;
10517;SDS011;5307;42.548;22.968;2023-11-21T12:25:16;16.52;;;7.22;;
10517;SDS011;5307;42.548;22.968;2023-11-21T12:27:44;20.40;;;8.55;;
10517;SDS011;5307;42.548;22.968;2023-11-21T12:33:01;111.25;;;42.88;;
10517;SDS011;5307;42.548;22.968;2023-11-21T12:35:29;239.75;;;88.03;;
10517;SDS011;5307;42.548;22.968;2023-11-21T12:38:00;23.05;;;9.48;;
10517;SDS011;5307;42.548;22.968;2023-11-21T12:40:28;27.98;;;12.77;;
10517;SDS011;5307;42.548;22.968;2023-11-21T12:42:56;24.63;;;11.50;;
10517;SDS011;5307;42.548;22.968;2023-11-21T12:45:24;19.40;;;9.60;;
10517;SDS011;5307;42.548;22.968;2023-11-21T12:47:54;15.98;;;8.93;;
10517;SDS011;5307;42.548;22.968;2023-11-21T12:50:22;28.67;;;13.40;;
10517;SDS011;5307;42.548;22.968;2023-11-21T12:52:54;26.02;;;11.38;;
10517;SDS011;5307;42.548;22.968;2023-11-21T12:55:25;19.80;;;9.18;;
10517;SDS011;5307;42.548;22.968;2023-11-21T12:57:55;11.07;;;6.07;;
10517;SDS011;5307;42.548;22.968;2023-11-21T13:00:27;16.77;;;8.43;;
10517;SDS011;5307;42.548;22.968;2023-11-21T13:02:58;11.55;;;5.95;;
10517;SDS011;5307;42.548;22.968;2023-11-21T13:05:28;16.83;;;7.72;;
10517;SDS011;5307;42.548;22.968;2023-11-21T13:07:56;13.07;;;6.30;;
10517;SDS011;5307;42.548;22.968;2023-11-21T13:10:26;10.48;;;5.80;;
10517;SDS011;5307;42.548;22.968;2023-11-21T13:12:56;14.40;;;6.72;;
10517;SDS011;5307;42.548;22.968;2023-11-21T13:15:25;13.40;;;6.68;;
10517;SDS011;5307;42.548;22.968;2023-11-21T13:17:52;10.52;;;6.00;;
10517;SDS011;5307;42.548;22.968;2023-11-21T13:20:21;18.02;;;7.93;;
10517;SDS011;5307;42.548;22.968;2023-11-21T13:22:49;12.93;;;7.80;;
10517;SDS011;5307;42.548;22.968;2023-11-21T13:25:19;13.02;;;7.60;;
10517;SDS011;5307;42.548;22.968;2023-11-21T13:27:48;17.30;;;8.80;;
10517;SDS011;5307;42.548;22.968;2023-11-21T13:30:15;25.65;;;12.88;;
10517;SDS011;5307;42.548;22.968;2023-11-21T13:32:44;18.50;;;9.93;;
10517;SDS011;5307;42.548;22.968;2023-11-21T13:35:12;19.25;;;10.35;;
10517;SDS011;5307;42.548;22.968;2023-11-21T13:37:49;25.98;;;12.10;;
10517;SDS011;5307;42.548;22.968;2023-11-21T13:40:21;15.55;;;9.98;;
10517;SDS011;5307;42.548;22.968;2023-11-21T13:42:52;43.72;;;19.52;;
10517;SDS011;5307;42.548;22.968;2023-11-21T13:45:23;29.23;;;14.00;;
10517;SDS011;5307;42.548;22.968;2023-11-21T13:47:50;21.33;;;13.13;;
10517;SDS011;5307;42.548;22.968;2023-11-21T13:50:22;19.60;;;11.18;;
10517;SDS011;5307;42.548;22.968;2023-11-21T13:52:54;36.95;;;18.17;;
10517;SDS011;5307;42.548;22.968;2023-11-21T13:55:21;14.73;;;5.70;;
10517;SDS011;5307;42.548;22.968;2023-11-21T13:57:50;16.88;;;8.13;;
10517;SDS011;5307;42.548;22.968;2023-11-21T14:00:19;19.15;;;10.38;;
10517;SDS011;5307;42.548;22.968;2023-11-21T14:03:03;15.80;;;7.75;;
10517;SDS011;5307;42.548;22.968;2023-11-21T14:05:35;22.13;;;10.13;;
10517;SDS011;5307;42.548;22.968;2023-11-21T14:08:02;21.42;;;10.07;;
10517;SDS011;5307;42.548;22.968;2023-11-21T14:10:30;31.50;;;12.55;;
10517;SDS011;5307;42.548;22.968;2023-11-21T14:13:06;62.97;;;23.67;;
10517;SDS011;5307;42.548;22.968;2023-11-21T14:15:35;12.98;;;7.07;;
10517;SDS011;5307;42.548;22.968;2023-11-21T14:18:06;17.98;;;10.15;;
10517;SDS011;5307;42.548;22.968;2023-11-21T14:20:35;34.15;;;14.63;;
10517;SDS011;5307;42.548;22.968;2023-11-21T14:23:03;155.48;;;60.78;;
10517;SDS011;5307;42.548;22.968;2023-11-21T14:25:31;24.92;;;11.93;;
10517;SDS011;5307;42.548;22.968;2023-11-21T14:27:58;45.63;;;20.02;;
10517;SDS011;5307;42.548;22.968;2023-11-21T14:30:26;25.98;;;12.73;;
10517;SDS011;5307;42.548;22.968;2023-11-21T14:32:55;99.55;;;38.03;;
10517;SDS011;5307;42.548;22.968;2023-11-21T14:35:21;150.93;;;55.38;;
10517;SDS011;5307;42.548;22.968;2023-11-21T14:37:48;276.73;;;94.72;;
10517;SDS011;5307;42.548;22.968;2023-11-21T14:40:18;150.45;;;53.83;;